SBAN

Base Aérea Airport

Anápolis, Brazil
TAF SBAN 192200Z 2000/2012 11008KT 9999 SCT040 FEW045TCU TX23/2000Z TN19/2009Z BECMG 2000/2002 FEW036 BECMG 2003/2005 09008KT CAVOK RMK PDS
Issued Valid From Valid To
Sep-19 @ 22:00 UTC
(3 hours ago)
Sep-20 @ 00:00 UTC
(42 minutes ago)
Sep-20 @ 12:00 UTC
(in 11 hours)
Sep-20 @ 00:00 to Sep-20 @ 12:00
TAF SBAN 192200Z 2000/2012 11008KT 9999 SCT040 FEW045TCU TX23/2000Z TN19/2009Z
Wind Visibility Clouds
110° at 8 knots 10,000+ meters
  • Scattered at 4,000' AGL
  • Few at 4,500' AGL
Becoming Sep-20 @ 00:00 to Sep-20 @ 03:00
BECMG 2000/2002 FEW036
Wind Visibility Clouds
110° at 8 knots 10,000+ meters
  • Few at 3,600' AGL
Becoming Sep-20 @ 03:00 to Sep-20 @ 12:00
BECMG 2003/2005 09008KT CAVOK RMK PDS
Wind Visibility Clouds Conditions
90° at 8 knots 10,000+ meters
  • No significant clouds
TAF SBAN 192200Z 2000/2012 11008KT 9999 SCT040 FEW045TCU TX23/2000Z TN19/2009Z BECMG 2000/2002 FEW036 BECMG 2003/2005 09008KT CAVOK RMK PDS
Issued Sep-19 @ 22:00 UTC
(3 hours ago)
Valid From Sep-20 @ 00:00 UTC
(42 minutes ago)
Valid To Sep-20 @ 12:00 UTC
(in 11 hours)
Sep-20 @ 00:00 - Sep-20 @ 12:00
Wind Visibility
110° at 8 knots 10,000+ meters
Clouds
  • Scattered at 4,000' AGL
  • Few at 4,500' AGL
Becoming Sep-20 @ 00:00 - Sep-20 @ 03:00
Wind Visibility
110° at 8 knots 10,000+ meters
Clouds
  • Few at 3,600' AGL
Becoming Sep-20 @ 03:00 - Sep-20 @ 12:00
Wind Visibility
90° at 8 knots 10,000+ meters
Clouds
  • No significant clouds
Conditions